Time;durP1;ratioP1;P1;durP2;ratioP2;P2;SDS_P1;SDS_P2;PMS_P1;PMS_P2;Temp;Humidity;BMP_temperature;BMP_pressure;BME280_temperature;BME280_humidity;BME280_pressure;Samples;Min_cycle;Max_cycle;Signal;HPM_P1;HPM_P2
2023/09/16 00:01:19;;;;;;;7.88;5.38;;;13.90;99.90;;;;;;4994098;28;20399;-65
2023/09/16 00:03:45;;;;;;;7.82;5.53;;;13.90;99.90;;;;;;4995024;28;20034;-65
2023/09/16 00:06:12;;;;;;;9.60;7.38;;;13.80;99.90;;;;;;4993760;28;20077;-65
2023/09/16 00:08:39;;;;;;;7.15;4.75;;;13.80;99.90;;;;;;4961659;28;20109;-65
2023/09/16 00:11:12;;;;;;;7.32;5.05;;;13.70;99.90;;;;;;4977439;28;20050;-65
2023/09/16 00:13:38;;;;;;;9.20;7.57;;;13.70;99.90;;;;;;4978319;28;20049;-65
2023/09/16 00:16:05;;;;;;;7.78;5.13;;;13.70;99.90;;;;;;4961351;28;20057;-65
2023/09/16 00:18:31;;;;;;;8.45;5.40;;;13.70;99.90;;;;;;5009958;28;20077;-65
2023/09/16 00:20:56;;;;;;;8.15;6.00;;;13.70;99.90;;;;;;4994949;28;20066;-69
2023/09/16 00:23:22;;;;;;;13.48;10.70;;;13.80;99.90;;;;;;5010726;28;20486;-71
2023/09/16 00:25:48;;;;;;;10.52;8.23;;;13.70;99.90;;;;;;4994239;28;20042;-71
2023/09/16 00:28:14;;;;;;;9.02;6.07;;;13.60;99.90;;;;;;4994207;28;20053;-71
2023/09/16 00:30:45;;;;;;;6.97;5.07;;;13.70;99.90;;;;;;5010735;28;20125;-72
2023/09/16 00:33:11;;;;;;;7.22;4.93;;;13.60;99.90;;;;;;4994460;28;20034;-71
2023/09/16 00:35:37;;;;;;;7.82;5.88;;;13.70;99.90;;;;;;4978259;28;20488;-71
2023/09/16 00:38:03;;;;;;;8.73;7.15;;;13.70;99.90;;;;;;4977631;28;20046;-71
2023/09/16 00:40:29;;;;;;;9.05;7.25;;;13.70;99.90;;;;;;4993701;28;20166;-71
2023/09/16 00:42:54;;;;;;;10.07;7.20;;;13.60;99.90;;;;;;4994092;28;20125;-71
2023/09/16 00:45:21;;;;;;;8.35;6.28;;;13.60;99.90;;;;;;4977770;28;20042;-71
2023/09/16 00:47:47;;;;;;;10.63;8.75;;;13.60;99.90;;;;;;4994864;28;20054;-71
2023/09/16 00:50:14;;;;;;;16.90;14.48;;;13.50;99.90;;;;;;4993746;28;20144;-72
2023/09/16 00:52:45;;;;;;;9.20;7.63;;;13.40;99.90;;;;;;4995107;28;20078;-71
2023/09/16 00:55:11;;;;;;;14.15;11.15;;;13.40;99.90;;;;;;4977640;28;20049;-71
2023/09/16 00:57:43;;;;;;;11.93;9.23;;;13.40;99.90;;;;;;4977658;28;20042;-72
2023/09/16 01:00:10;;;;;;;11.82;9.48;;;13.40;99.90;;;;;;4977350;28;20046;-71
2023/09/16 01:02:36;;;;;;;11.65;8.98;;;13.40;99.90;;;;;;5009973;28;20050;-70
2023/09/16 01:05:14;;;;;;;10.43;7.82;;;13.30;99.90;;;;;;4993405;28;20050;-71
2023/09/16 01:07:47;;;;;;;9.63;7.68;;;13.30;99.90;;;;;;4977824;28;20077;-72
2023/09/16 01:10:20;;;;;;;8.02;5.90;;;13.20;99.90;;;;;;4995196;28;20038;-71
2023/09/16 01:12:48;;;;;;;9.25;6.00;;;13.20;99.90;;;;;;4993416;28;20046;-71
2023/09/16 01:15:16;;;;;;;10.50;6.47;;;13.20;99.90;;;;;;4993679;28;20046;-70
2023/09/16 01:18:12;;;;;;;11.50;9.85;;;13.20;99.90;;;;;;4993330;28;20050;-72
2023/09/16 01:20:39;;;;;;;11.18;9.65;;;13.30;99.90;;;;;;4992741;28;20064;-71
2023/09/16 01:23:08;;;;;;;8.70;7.00;;;13.30;99.90;;;;;;5009735;28;20050;-71
2023/09/16 01:25:33;;;;;;;8.18;6.07;;;13.20;99.90;;;;;;4977078;28;20376;-72
2023/09/16 01:27:59;;;;;;;8.30;6.15;;;13.20;99.90;;;;;;4993198;28;20042;-70
2023/09/16 01:30:28;;;;;;;7.78;6.20;;;13.20;99.90;;;;;;4993054;28;20034;-73
2023/09/16 01:33:04;;;;;;;10.52;7.88;;;13.20;99.90;;;;;;4992866;28;20038;-71
2023/09/16 01:35:35;;;;;;;7.70;5.70;;;13.20;99.90;;;;;;4992541;28;20081;-72
2023/09/16 01:38:02;;;;;;;9.67;8.27;;;13.20;99.90;;;;;;4992597;28;20058;-70
2023/09/16 01:40:29;;;;;;;7.20;5.68;;;13.20;99.90;;;;;;4992546;28;20078;-71
2023/09/16 01:42:56;;;;;;;7.68;5.38;;;13.10;99.90;;;;;;4992620;28;20076;-71
2023/09/16 01:45:33;;;;;;;8.00;5.43;;;13.10;99.90;;;;;;4976531;28;20049;-70
2023/09/16 01:48:02;;;;;;;8.45;5.63;;;13.10;99.90;;;;;;4992277;28;20050;-71
2023/09/16 01:50:29;;;;;;;6.63;5.03;;;13.20;99.90;;;;;;4992790;28;20495;-72
2023/09/16 01:52:54;;;;;;;7.13;5.40;;;13.20;99.90;;;;;;4977000;28;20046;-71
2023/09/16 01:55:20;;;;;;;7.07;4.97;;;13.20;99.90;;;;;;5009149;28;20034;-72
2023/09/16 01:57:46;;;;;;;6.70;5.13;;;13.20;99.90;;;;;;4976563;28;20177;-72
2023/09/16 02:00:12;;;;;;;6.97;5.13;;;13.20;99.90;;;;;;4992516;28;20085;-71
2023/09/16 02:02:38;;;;;;;7.25;5.22;;;13.20;99.90;;;;;;4992740;28;20038;-72
2023/09/16 02:05:04;;;;;;;6.75;4.93;;;13.30;99.90;;;;;;4993035;28;20038;-72
2023/09/16 02:07:30;;;;;;;7.03;4.88;;;13.30;99.90;;;;;;4976314;28;20046;-71
2023/09/16 02:09:56;;;;;;;6.22;4.78;;;13.30;99.90;;;;;;4996042;28;20376;-69
2023/09/16 02:12:22;;;;;;;7.50;5.45;;;13.20;99.90;;;;;;4980474;28;20085;-70
2023/09/16 02:14:51;;;;;;;7.88;5.22;;;13.30;99.90;;;;;;4996554;28;20074;-71
2023/09/16 02:17:20;;;;;;;9.63;7.53;;;13.30;99.90;;;;;;4997073;28;20034;-72
2023/09/16 02:19:46;;;;;;;7.13;5.40;;;13.20;99.90;;;;;;4981170;28;20047;-70
2023/09/16 02:22:12;;;;;;;6.88;5.10;;;13.20;99.90;;;;;;4980587;28;20044;-71
2023/09/16 02:24:38;;;;;;;7.00;5.50;;;13.20;99.90;;;;;;4981491;28;20098;-71
2023/09/16 02:27:04;;;;;;;7.13;5.18;;;13.20;99.90;;;;;;4998272;28;20050;-71
2023/09/16 02:29:33;;;;;;;6.97;5.00;;;13.20;99.90;;;;;;4998813;28;20123;-71
2023/09/16 02:31:59;;;;;;;7.25;4.90;;;13.20;99.90;;;;;;4998667;28;20049;-71
2023/09/16 02:34:31;;;;;;;8.90;5.75;;;13.20;99.90;;;;;;4998694;28;20038;-70
2023/09/16 02:36:58;;;;;;;;;;;13.20;99.90;;;;;;4982798;28;20132;-70
2023/09/16 02:39:23;;;;;;;7.68;5.55;;;13.20;99.90;;;;;;4981836;28;19929;-70
2023/09/16 02:41:49;;;;;;;8.30;5.32;;;13.20;99.90;;;;;;4981222;28;20046;-65
2023/09/16 02:44:15;;;;;;;8.18;6.70;;;13.20;99.90;;;;;;4995739;28;20034;-65
2023/09/16 02:46:41;;;;;;;8.65;6.45;;;13.30;99.90;;;;;;5011685;28;20077;-66
2023/09/16 02:49:07;;;;;;;7.85;5.85;;;13.20;99.90;;;;;;4979186;28;20082;-65
2023/09/16 02:51:36;;;;;;;8.98;6.10;;;13.20;99.90;;;;;;4963990;28;20073;-66
2023/09/16 02:54:02;;;;;;;7.60;5.78;;;13.20;99.90;;;;;;4995646;28;20050;-64
2023/09/16 02:56:28;;;;;;;12.98;10.65;;;13.20;99.90;;;;;;4979207;28;20074;-66
2023/09/16 02:58:53;;;;;;;7.68;5.70;;;13.20;99.90;;;;;;4996364;28;20049;-64
2023/09/16 03:01:19;;;;;;;8.80;6.07;;;13.20;99.90;;;;;;4995579;28;20454;-65
2023/09/16 03:03:45;;;;;;;8.00;5.93;;;13.10;99.90;;;;;;4994947;28;20046;-65
2023/09/16 03:06:11;;;;;;;7.80;6.13;;;13.20;99.90;;;;;;4995256;28;20064;-65
2023/09/16 03:08:37;;;;;;;7.78;6.10;;;13.20;99.90;;;;;;4978666;28;20053;-63
2023/09/16 03:11:19;;;;;;;10.80;7.22;;;13.20;99.90;;;;;;4995219;28;20069;-68
2023/09/16 03:13:46;;;;;;;8.18;6.07;;;13.20;99.90;;;;;;4996348;28;20078;-66
2023/09/16 03:16:19;;;;;;;8.48;6.47;;;13.20;99.90;;;;;;4994868;28;20512;-64
2023/09/16 03:18:49;;;;;;;8.38;6.07;;;13.10;99.90;;;;;;4978667;28;20046;-65
2023/09/16 03:21:17;;;;;;;15.85;14.02;;;13.10;99.90;;;;;;4978465;28;20077;-66
2023/09/16 03:23:44;;;;;;;11.68;9.00;;;13.00;99.90;;;;;;4994896;28;20039;-65
2023/09/16 03:26:10;;;;;;;16.73;14.80;;;13.00;99.90;;;;;;4994819;28;20046;-64
2023/09/16 03:28:41;;;;;;;8.75;6.53;;;13.00;99.90;;;;;;4994718;28;20038;-64
2023/09/16 03:31:07;;;;;;;23.75;20.98;;;12.90;99.90;;;;;;4994875;28;20038;-64
2023/09/16 03:33:33;;;;;;;29.75;26.50;;;12.80;99.90;;;;;;4962277;28;20121;-65
2023/09/16 03:35:59;;;;;;;25.67;23.00;;;12.80;99.90;;;;;;4994475;28;20046;-66
2023/09/16 03:38:31;;;;;;;15.02;12.45;;;12.80;99.90;;;;;;4994235;28;20046;-65
2023/09/16 03:40:58;;;;;;;18.67;16.75;;;12.70;99.90;;;;;;4978408;28;20395;-65
2023/09/16 03:43:28;;;;;;;10.77;8.57;;;12.70;99.90;;;;;;4978121;28;20046;-64
2023/09/16 03:45:54;;;;;;;9.88;7.45;;;12.70;99.90;;;;;;4978419;28;20038;-65
2023/09/16 03:48:20;;;;;;;10.52;8.77;;;12.70;99.90;;;;;;4977855;28;20414;-65
2023/09/16 03:50:53;;;;;;;8.95;6.90;;;12.70;99.90;;;;;;4994223;28;20088;-65
2023/09/16 03:53:25;;;;;;;10.20;7.57;;;12.70;99.90;;;;;;4995862;28;20553;-71
2023/09/16 03:55:52;;;;;;;12.32;10.65;;;12.70;99.90;;;;;;4995362;28;20117;-70
2023/09/16 03:58:17;;;;;;;11.05;9.32;;;12.70;99.90;;;;;;4996084;28;20046;-71
2023/09/16 04:00:43;;;;;;;8.48;7.45;;;12.60;99.90;;;;;;4995018;28;20415;-70
2023/09/16 04:03:09;;;;;;;12.93;11.52;;;12.60;99.90;;;;;;4995186;28;20038;-71
2023/09/16 04:05:35;;;;;;;10.30;9.20;;;12.60;99.90;;;;;;4996391;28;20142;-72
2023/09/16 04:08:01;;;;;;;8.35;7.05;;;12.60;99.90;;;;;;4978442;28;20125;-71
2023/09/16 04:10:27;;;;;;;9.55;8.20;;;12.50;99.90;;;;;;4978660;28;20117;-71
2023/09/16 04:12:53;;;;;;;9.98;7.85;;;12.50;99.90;;;;;;4979045;28;20046;-70
2023/09/16 04:15:24;;;;;;;9.73;7.63;;;12.50;99.90;;;;;;4994927;28;20097;-71
2023/09/16 04:17:51;;;;;;;9.32;8.15;;;12.60;99.90;;;;;;4994530;28;20038;-70
2023/09/16 04:20:36;;;;;;;9.75;7.82;;;12.60;99.90;;;;;;4978107;28;20100;-72
2023/09/16 04:23:02;;;;;;;8.27;7.20;;;12.50;99.90;;;;;;4994666;28;20034;-71
2023/09/16 04:25:28;;;;;;;8.70;7.38;;;12.50;99.90;;;;;;4994240;28;20117;-71
2023/09/16 04:27:53;;;;;;;9.35;7.30;;;12.50;99.90;;;;;;4993933;28;20471;-72
2023/09/16 04:30:19;;;;;;;9.20;7.72;;;12.60;99.90;;;;;;5010396;28;20038;-71
2023/09/16 04:32:46;;;;;;;8.45;7.35;;;12.60;99.90;;;;;;4993898;28;20112;-72
2023/09/16 04:35:36;;;;;;;9.40;7.18;;;12.60;99.90;;;;;;4978072;28;20050;-71
2023/09/16 04:38:01;;;;;;;9.82;7.15;;;12.60;99.90;;;;;;5009959;28;20049;-72
2023/09/16 04:40:27;;;;;;;10.57;9.48;;;12.50;99.90;;;;;;4994352;28;20121;-71
2023/09/16 04:42:52;;;;;;;8.30;7.22;;;12.50;99.90;;;;;;4994008;28;20479;-71
2023/09/16 04:45:21;;;;;;;8.63;7.32;;;12.50;99.90;;;;;;4993853;28;20046;-70
2023/09/16 04:47:52;;;;;;;9.02;6.55;;;12.40;99.90;;;;;;4993736;28;20108;-71
2023/09/16 04:50:18;;;;;;;9.85;7.65;;;12.40;99.90;;;;;;4978228;28;20061;-70
2023/09/16 04:52:56;;;;;;;8.25;6.15;;;12.40;99.90;;;;;;5010195;28;20038;-71
2023/09/16 04:55:24;;;;;;;11.25;10.10;;;12.40;99.90;;;;;;5010116;28;20057;-71
2023/09/16 04:57:50;;;;;;;12.23;10.90;;;12.50;99.90;;;;;;4993433;28;20444;-70
2023/09/16 05:00:17;;;;;;;12.13;9.55;;;12.40;99.90;;;;;;4977670;28;20038;-69
2023/09/16 05:02:48;;;;;;;8.88;7.07;;;12.40;99.90;;;;;;4993487;28;20061;-70
2023/09/16 05:05:23;;;;;;;10.88;9.77;;;12.40;99.90;;;;;;4993414;28;20061;-71
2023/09/16 05:07:51;;;;;;;13.75;12.40;;;12.40;99.90;;;;;;4962409;28;20498;-70
2023/09/16 05:10:17;;;;;;;20.23;18.20;;;12.40;99.90;;;;;;4993655;28;20053;-70
2023/09/16 05:12:43;;;;;;;15.60;14.00;;;12.30;99.90;;;;;;4977447;28;20042;-71
2023/09/16 05:15:11;;;;;;;24.25;21.80;;;12.30;99.90;;;;;;4993577;28;20038;-72
2023/09/16 05:17:50;;;;;;;11.23;10.10;;;12.20;99.90;;;;;;4992991;28;20121;-71
2023/09/16 05:20:37;;;;;;;8.90;8.00;;;12.20;99.90;;;;;;4977499;28;20046;-72
2023/09/16 05:23:02;;;;;;;11.05;9.30;;;12.20;99.90;;;;;;4993447;28;20046;-70
2023/09/16 05:25:28;;;;;;;26.55;23.85;;;12.20;99.90;;;;;;4976552;28;20046;-71
2023/09/16 05:27:57;;;;;;;10.57;9.43;;;12.30;99.90;;;;;;4994618;28;20384;-70
2023/09/16 05:30:26;;;;;;;10.13;7.90;;;12.30;99.90;;;;;;4977435;28;20479;-71
2023/09/16 05:32:58;;;;;;;8.00;6.78;;;12.30;99.90;;;;;;4993557;28;20058;-71
2023/09/16 05:35:24;;;;;;;9.85;8.80;;;12.30;99.90;;;;;;4994547;28;20047;-71
2023/09/16 05:37:50;;;;;;;11.32;10.13;;;12.30;99.90;;;;;;4993519;28;20410;-72
2023/09/16 05:40:16;;;;;;;10.70;9.60;;;12.30;99.90;;;;;;4976893;28;20049;-71
2023/09/16 05:42:41;;;;;;;12.82;11.52;;;12.30;99.90;;;;;;4993107;28;20511;-71
2023/09/16 05:45:08;;;;;;;19.77;17.85;;;12.30;99.90;;;;;;4996122;28;20050;-70
2023/09/16 05:47:33;;;;;;;21.92;19.83;;;12.30;99.90;;;;;;4996773;28;20047;-69
2023/09/16 05:49:59;;;;;;;24.88;22.58;;;12.30;99.90;;;;;;4996902;28;20058;-71
2023/09/16 05:52:25;;;;;;;11.77;10.40;;;12.30;99.90;;;;;;4996964;28;20046;-70
2023/09/16 05:54:51;;;;;;;12.10;10.23;;;12.30;99.90;;;;;;4980866;28;20407;-71
2023/09/16 05:57:17;;;;;;;13.55;12.20;;;12.20;99.90;;;;;;4996968;28;20149;-71
2023/09/16 05:59:42;;;;;;;11.93;10.57;;;12.30;99.90;;;;;;4980775;28;20057;-71
2023/09/16 06:02:08;;;;;;;12.55;11.25;;;12.20;99.90;;;;;;4997763;28;20050;-71
2023/09/16 06:04:35;;;;;;;13.90;12.50;;;12.20;99.90;;;;;;4996796;28;20038;-71
2023/09/16 06:07:01;;;;;;;15.77;14.23;;;12.20;99.90;;;;;;4980377;28;20418;-71
2023/09/16 06:09:27;;;;;;;13.50;12.20;;;12.20;99.90;;;;;;4964349;28;20447;-65
2023/09/16 06:11:53;;;;;;;13.90;12.60;;;12.20;99.90;;;;;;4996570;28;20122;-65
2023/09/16 06:14:19;;;;;;;12.82;11.52;;;12.20;99.90;;;;;;4979896;28;20133;-65
2023/09/16 06:16:44;;;;;;;14.00;12.70;;;12.30;99.90;;;;;;4979657;28;20141;-65
2023/09/16 06:19:10;;;;;;;18.08;16.30;;;12.30;99.90;;;;;;4979583;28;20050;-65
2023/09/16 06:21:45;;;;;;;18.35;16.67;;;12.50;99.90;;;;;;4995685;28;20045;-65
2023/09/16 06:24:11;;;;;;;18.48;16.65;;;12.90;99.90;;;;;;4995809;28;20045;-64
2023/09/16 06:26:37;;;;;;;17.10;15.50;;;13.50;99.90;;;;;;4995980;28;20050;-64
2023/09/16 06:29:03;;;;;;;12.48;11.27;;;14.00;99.90;;;;;;4963628;28;20129;-65
2023/09/16 06:31:29;;;;;;;13.57;12.27;;;14.50;99.90;;;;;;4979609;28;20042;-65
2023/09/16 06:33:55;;;;;;;13.52;12.13;;;15.10;99.90;;;;;;4996793;28;20042;-66
2023/09/16 06:36:21;;;;;;;14.35;12.85;;;15.50;99.90;;;;;;4979139;28;20045;-64
2023/09/16 06:38:47;;;;;;;13.10;11.70;;;16.10;99.90;;;;;;4995450;28;20129;-65
2023/09/16 06:41:12;;;;;;;15.00;13.50;;;16.70;99.90;;;;;;4995671;28;20126;-65
2023/09/16 06:43:38;;;;;;;14.57;13.07;;;17.10;99.90;;;;;;4963111;28;20089;-63
2023/09/16 06:46:05;;;;;;;15.15;11.82;;;17.00;99.90;;;;;;4963020;28;20125;-64
2023/09/16 06:48:30;;;;;;;15.40;12.30;;;17.40;99.90;;;;;;4978965;28;20050;-64
2023/09/16 06:50:56;;;;;;;14.55;12.80;;;17.40;99.90;;;;;;4979177;28;20406;-65
2023/09/16 06:53:22;;;;;;;14.55;12.43;;;17.50;99.90;;;;;;4979113;28;20420;-64
2023/09/16 06:55:48;;;;;;;17.35;15.48;;;17.90;99.90;;;;;;4994917;28;20542;-65
2023/09/16 06:58:14;;;;;;;17.70;15.65;;;18.30;99.90;;;;;;4995062;28;20046;-65
2023/09/16 07:00:46;;;;;;;13.75;12.35;;;18.60;99.90;;;;;;4979332;28;20038;-65
2023/09/16 07:03:12;;;;;;;15.05;13.48;;;18.60;99.90;;;;;;4995348;28;20475;-65
2023/09/16 07:05:37;;;;;;;16.85;14.18;;;18.50;99.90;;;;;;4994812;28;20045;-65
2023/09/16 07:08:04;;;;;;;16.08;13.95;;;18.40;99.90;;;;;;4994855;28;20549;-63
2023/09/16 07:10:29;;;;;;;16.35;14.60;;;18.40;99.90;;;;;;4978966;28;20554;-65
2023/09/16 07:12:55;;;;;;;16.13;14.45;;;18.20;99.90;;;;;;4994764;28;20038;-66
2023/09/16 07:15:22;;;;;;;14.95;13.43;;;17.80;99.90;;;;;;4995304;28;20455;-65
2023/09/16 07:17:47;;;;;;;20.23;14.68;;;17.70;99.90;;;;;;4978416;28;20121;-65
2023/09/16 07:20:13;;;;;;;14.95;13.35;;;17.40;99.90;;;;;;4994881;28;20212;-65
2023/09/16 07:22:39;;;;;;;17.30;14.50;;;17.40;99.90;;;;;;4978777;28;20463;-65
2023/09/16 07:25:17;;;;;;;16.55;14.85;;;17.40;99.90;;;;;;4994570;28;20042;-66
2023/09/16 07:27:43;;;;;;;20.10;17.90;;;17.20;99.90;;;;;;4994589;28;20049;-65
2023/09/16 07:30:09;;;;;;;18.45;16.30;;;17.10;99.90;;;;;;4962220;28;20050;-65
2023/09/16 07:32:36;;;;;;;16.00;14.30;;;16.90;99.90;;;;;;4994847;28;20042;-66
2023/09/16 07:35:02;;;;;;;16.65;14.63;;;16.80;99.90;;;;;;4978233;28;20054;-66
2023/09/16 07:37:27;;;;;;;19.33;17.40;;;16.90;99.90;;;;;;4978177;28;20093;-66
2023/09/16 07:39:56;;;;;;;16.25;14.60;;;16.90;99.90;;;;;;4994682;28;20042;-66
2023/09/16 07:42:22;;;;;;;17.85;15.90;;;16.90;99.90;;;;;;4994479;28;20526;-65
2023/09/16 07:44:48;;;;;;;18.88;16.98;;;16.80;99.90;;;;;;4995508;28;20081;-64
2023/09/16 07:47:20;;;;;;;17.17;15.48;;;16.60;99.90;;;;;;4994087;28;20108;-68
2023/09/16 07:49:45;;;;;;;19.55;17.45;;;16.80;99.90;;;;;;4994082;28;20058;-65
2023/09/16 07:52:11;;;;;;;18.33;16.55;;;16.80;99.90;;;;;;4978043;28;20129;-65
2023/09/16 07:54:37;;;;;;;18.73;16.83;;;16.90;99.90;;;;;;4994054;28;20050;-65
2023/09/16 07:57:03;;;;;;;16.30;14.57;;;17.00;99.90;;;;;;4993875;28;20394;-65
2023/09/16 07:59:29;;;;;;;22.80;20.60;;;17.10;99.90;;;;;;4994255;28;20427;-65
2023/09/16 08:01:55;;;;;;;18.10;16.27;;;17.00;99.90;;;;;;4995276;28;20039;-65
2023/09/16 08:04:20;;;;;;;19.17;17.20;;;17.00;99.90;;;;;;4993796;28;20380;-65
2023/09/16 08:06:49;;;;;;;19.23;17.23;;;17.00;99.90;;;;;;4993235;28;20387;-65
2023/09/16 08:09:18;;;;;;;18.98;17.08;;;17.00;99.90;;;;;;4994011;28;20049;-65
2023/09/16 08:11:43;;;;;;;21.02;18.92;;;17.00;99.90;;;;;;4961460;28;20129;-65
2023/09/16 08:14:09;;;;;;;23.52;21.17;;;17.00;99.90;;;;;;4994963;28;20440;-65
2023/09/16 08:16:36;;;;;;;19.88;17.85;;;17.10;99.90;;;;;;4977501;28;20290;-65
2023/09/16 08:19:01;;;;;;;19.02;16.25;;;17.20;99.90;;;;;;4993851;28;20542;-64
2023/09/16 08:21:27;;;;;;;20.48;18.48;;;17.30;99.90;;;;;;4977610;28;20042;-64
2023/09/16 08:23:53;;;;;;;22.92;20.63;;;17.50;99.90;;;;;;4993748;28;20042;-64
2023/09/16 08:26:19;;;;;;;19.63;17.48;;;17.50;99.90;;;;;;4977795;28;20046;-65
2023/09/16 08:28:44;;;;;;;20.23;18.20;;;17.70;99.90;;;;;;4994567;28;20046;-65
2023/09/16 08:31:10;;;;;;;20.50;18.40;;;17.80;99.90;;;;;;4993881;28;20054;-68
2023/09/16 08:33:36;;;;;;;18.98;17.08;;;17.90;99.90;;;;;;4993773;28;20038;-65
2023/09/16 08:36:02;;;;;;;17.25;15.45;;;18.30;99.90;;;;;;4993105;28;20049;-65
2023/09/16 08:38:27;;;;;;;21.55;19.45;;;18.50;99.90;;;;;;4993174;28;20053;-69
2023/09/16 08:41:17;;;;;;;17.90;16.10;;;18.60;99.90;;;;;;4993681;28;20482;-69
2023/09/16 08:43:45;;;;;;;19.10;17.10;;;18.80;99.90;;;;;;4993258;28;20049;-66
2023/09/16 08:46:16;;;;;;;17.80;15.90;;;18.90;99.90;;;;;;4993489;28;20045;-66
2023/09/16 08:48:46;;;;;;;18.70;16.70;;;19.20;99.90;;;;;;4976771;28;20073;-66
2023/09/16 08:51:17;;;;;;;17.50;15.10;;;19.30;99.90;;;;;;4977109;28;20165;-68
2023/09/16 08:53:44;;;;;;;18.77;15.15;;;19.50;99.90;;;;;;4994666;28;20038;-66
2023/09/16 08:56:13;;;;;;;16.17;13.80;;;19.80;99.90;;;;;;4992923;28;20038;-66
2023/09/16 08:58:39;;;;;;;14.77;13.27;;;20.10;99.90;;;;;;4993164;28;20050;-66
2023/09/16 09:01:06;;;;;;;17.00;15.25;;;20.30;99.90;;;;;;4993539;28;20574;-65
2023/09/16 09:03:33;;;;;;;16.55;14.65;;;20.20;99.90;;;;;;4977044;28;20143;-65
2023/09/16 09:05:59;;;;;;;15.50;13.07;;;20.10;99.90;;;;;;4976763;28;20034;-65
2023/09/16 09:08:25;;;;;;;15.50;13.77;;;20.40;99.90;;;;;;4992647;28;20045;-65
2023/09/16 09:10:53;;;;;;;16.10;14.07;;;20.70;99.90;;;;;;4976749;28;20039;-66
2023/09/16 09:13:19;;;;;;;14.82;13.02;;;20.90;99.90;;;;;;4992888;28;20084;-66
2023/09/16 09:15:47;;;;;;;15.27;13.68;;;20.90;99.90;;;;;;4976727;28;20133;-66
2023/09/16 09:18:15;;;;;;;13.85;12.35;;;20.90;99.90;;;;;;4993522;28;20085;-66
2023/09/16 09:20:41;;;;;;;13.82;12.43;;;20.90;99.90;;;;;;4992554;28;20125;-65
2023/09/16 09:23:07;;;;;;;14.35;11.85;;;20.80;99.90;;;;;;4976597;28;20130;-65
2023/09/16 09:25:36;;;;;;;14.95;13.43;;;20.90;99.90;;;;;;4976632;28;20056;-65
2023/09/16 09:28:03;;;;;;;14.88;13.30;;;21.00;99.90;;;;;;4992509;28;20043;-65
2023/09/16 09:30:31;;;;;;;14.98;13.38;;;21.00;99.90;;;;;;4992503;28;20129;-66
2023/09/16 09:32:58;;;;;;;14.63;13.13;;;21.20;99.90;;;;;;4992697;28;20061;-65
2023/09/16 09:35:26;;;;;;;14.48;12.93;;;21.60;99.90;;;;;;4993676;28;20042;-65
2023/09/16 09:37:52;;;;;;;15.48;13.43;;;21.80;99.90;;;;;;4992848;28;20073;-66
2023/09/16 09:40:19;;;;;;;14.32;12.48;;;21.90;99.90;;;;;;4992736;28;20129;-65
2023/09/16 09:42:57;;;;;;;14.60;12.55;;;22.00;99.90;;;;;;4976299;28;20074;-66
2023/09/16 09:45:25;;;;;;;13.48;11.75;;;22.00;99.90;;;;;;4992820;28;20486;-66
2023/09/16 09:47:52;;;;;;;14.30;12.55;;;21.90;99.90;;;;;;4976142;28;20403;-67
2023/09/16 09:50:20;;;;;;;14.35;12.05;;;22.00;99.90;;;;;;4992453;28;20101;-66
2023/09/16 09:52:52;;;;;;;14.27;11.65;;;22.10;99.90;;;;;;4992269;28;20097;-65
2023/09/16 09:55:23;;;;;;;15.00;11.27;;;22.20;99.90;;;;;;4976274;28;20034;-64
2023/09/16 09:57:51;;;;;;;13.50;12.10;;;22.30;99.90;;;;;;4992348;28;20047;-66
2023/09/16 10:00:19;;;;;;;13.63;11.85;;;22.40;99.90;;;;;;4992409;28;20121;-66
2023/09/16 10:02:47;;;;;;;14.98;13.43;;;22.50;99.90;;;;;;4992711;28;20043;-65
2023/09/16 10:05:15;;;;;;;14.43;12.90;;;22.60;99.90;;;;;;4975984;28;20039;-66
2023/09/16 10:07:45;;;;;;;12.77;11.43;;;22.60;99.90;;;;;;4975962;28;20116;-65
2023/09/16 10:10:16;;;;;;;13.30;11.82;;;22.80;99.90;;;;;;4992355;28;20039;-66
2023/09/16 10:12:44;;;;;;;12.02;10.55;;;23.00;99.90;;;;;;4992567;28;20046;-66
2023/09/16 10:15:10;;;;;;;13.75;10.50;;;23.00;99.90;;;;;;4992209;28;20050;-66
2023/09/16 10:17:37;;;;;;;11.73;10.18;;;22.90;99.90;;;;;;4992166;28;20038;-65
2023/09/16 10:20:03;;;;;;;12.48;10.93;;;23.00;99.90;;;;;;4992021;28;20053;-65
2023/09/16 10:22:33;;;;;;;11.60;10.38;;;23.10;99.90;;;;;;4992542;28;20042;-67
2023/09/16 10:24:59;;;;;;;14.25;11.85;;;23.30;99.90;;;;;;4993212;28;20081;-67
2023/09/16 10:27:30;;;;;;;11.93;10.63;;;23.30;99.90;;;;;;4991884;28;20050;-65
2023/09/16 10:29:56;;;;;;;12.73;10.37;;;23.20;99.90;;;;;;4976915;28;20450;-65
2023/09/16 10:32:23;;;;;;;12.98;9.35;;;23.40;99.90;;;;;;4995620;28;20046;-65
2023/09/16 10:34:52;;;;;;;12.50;10.05;;;23.40;99.90;;;;;;4995961;28;20053;-64
2023/09/16 10:37:18;;;;;;;13.70;9.77;;;23.40;99.90;;;;;;4996681;28;20042;-66
2023/09/16 10:39:46;;;;;;;12.10;9.32;;;23.60;99.90;;;;;;4979313;28;20034;-66
2023/09/16 10:42:16;;;;;;;13.27;10.00;;;23.70;99.90;;;;;;4979247;28;20046;-66
2023/09/16 10:44:43;;;;;;;11.40;9.52;;;23.80;99.90;;;;;;4979996;28;20329;-66
2023/09/16 10:47:16;;;;;;;10.98;8.80;;;23.80;99.90;;;;;;4979968;28;20099;-66
2023/09/16 10:49:41;;;;;;;13.30;11.00;;;23.90;99.90;;;;;;4978992;28;20069;-66
2023/09/16 10:52:14;;;;;;;11.57;9.77;;;24.00;99.90;;;;;;4995303;28;20494;-66
2023/09/16 10:54:56;;;;;;;10.30;9.20;;;23.90;99.90;;;;;;5011674;28;20039;-65
2023/09/16 10:57:36;;;;;;;12.98;10.85;;;24.00;99.90;;;;;;4995070;28;20172;-64
2023/09/16 11:00:03;;;;;;;13.63;11.02;;;24.10;99.90;;;;;;4995085;28;20057;-64
2023/09/16 11:02:36;;;;;;;13.00;10.23;;;24.20;99.90;;;;;;4995145;28;20050;-65
2023/09/16 11:05:02;;;;;;;13.48;10.63;;;24.30;99.90;;;;;;4995195;28;20398;-65
2023/09/16 11:07:29;;;;;;;10.82;9.43;;;24.20;99.90;;;;;;4995469;28;20495;-65
2023/09/16 11:09:56;;;;;;;10.75;8.15;;;24.20;99.90;;;;;;4994923;28;20046;-65
2023/09/16 11:12:22;;;;;;;11.38;8.60;;;24.10;99.90;;;;;;4994861;28;20042;-65
2023/09/16 11:14:49;;;;;;;13.60;9.80;;;24.30;99.90;;;;;;4995003;28;20054;-66
2023/09/16 11:17:15;;;;;;;11.20;9.10;;;24.40;99.90;;;;;;4978542;28;20042;-65
2023/09/16 11:19:42;;;;;;;10.00;8.52;;;24.10;99.90;;;;;;4994712;28;20046;-65
2023/09/16 11:22:09;;;;;;;10.35;8.07;;;24.20;99.90;;;;;;4978549;28;20073;-65
2023/09/16 11:24:36;;;;;;;10.32;8.40;;;24.30;99.90;;;;;;4978619;28;20046;-66
2023/09/16 11:27:02;;;;;;;10.38;8.60;;;24.20;99.90;;;;;;4994526;28;20084;-66
2023/09/16 11:29:29;;;;;;;12.25;9.52;;;24.20;99.90;;;;;;4994528;28;20046;-65
2023/09/16 11:31:55;;;;;;;11.25;9.90;;;24.30;99.90;;;;;;4994737;28;20545;-65
2023/09/16 11:34:27;;;;;;;11.25;8.60;;;24.00;99.90;;;;;;4995937;28;20038;-66
2023/09/16 11:36:55;;;;;;;10.65;8.45;;;24.10;99.90;;;;;;4994611;28;20546;-65
2023/09/16 11:39:40;;;;;;;10.15;7.63;;;24.20;99.90;;;;;;4994321;28;20048;-66
2023/09/16 11:42:07;;;;;;;10.70;7.30;;;24.10;99.90;;;;;;4978163;28;20038;-66
2023/09/16 11:44:37;;;;;;;8.13;6.88;;;24.40;99.90;;;;;;4994180;28;20042;-65
2023/09/16 11:47:04;;;;;;;8.23;6.10;;;24.50;99.90;;;;;;4994422;28;20402;-67
2023/09/16 11:49:34;;;;;;;9.50;6.00;;;24.60;99.40;;;;;;5010522;28;20522;-66
2023/09/16 11:52:02;;;;;;;8.32;5.57;;;24.50;99.00;;;;;;4977857;28;20046;-66
2023/09/16 11:54:28;;;;;;;10.15;6.30;;;24.70;97.60;;;;;;4994314;28;20042;-66
2023/09/16 11:56:55;;;;;;;9.48;7.10;;;24.60;98.40;;;;;;4962057;28;20038;-66
2023/09/16 11:59:24;;;;;;;8.43;6.10;;;24.40;97.60;;;;;;4978387;28;20069;-66
2023/09/16 12:01:50;;;;;;;8.55;6.15;;;24.50;97.20;;;;;;4994199;28;20054;-67
2023/09/16 12:04:17;;;;;;;7.57;4.75;;;24.50;98.40;;;;;;4994521;28;20039;-65
2023/09/16 12:06:44;;;;;;;7.07;4.57;;;24.50;98.00;;;;;;4978086;28;20064;-67
2023/09/16 12:09:15;;;;;;;7.68;5.22;;;24.60;97.40;;;;;;4993930;28;20117;-67
2023/09/16 12:11:41;;;;;;;7.43;4.85;;;24.70;97.00;;;;;;4993917;28;20046;-72
2023/09/16 12:14:07;;;;;;;7.82;4.75;;;24.80;97.60;;;;;;4981035;28;20038;-70
2023/09/16 12:16:35;;;;;;;6.50;4.47;;;24.70;97.00;;;;;;4997509;28;20057;-71
2023/09/16 12:19:02;;;;;;;6.45;4.15;;;24.90;95.80;;;;;;4998108;28;20066;-72
2023/09/16 12:21:28;;;;;;;7.45;4.80;;;24.90;96.10;;;;;;5013957;28;20132;-71
2023/09/16 12:23:54;;;;;;;7.78;4.90;;;25.00;96.40;;;;;;4996692;28;20090;-71
2023/09/16 12:26:20;;;;;;;6.93;4.95;;;25.00;96.30;;;;;;5012780;28;20053;-73
2023/09/16 12:28:49;;;;;;;8.77;5.53;;;25.10;96.10;;;;;;4997110;28;20081;-71
2023/09/16 12:31:23;;;;;;;7.38;5.35;;;25.20;95.60;;;;;;4995894;28;20049;-74
2023/09/16 12:33:54;;;;;;;8.50;5.40;;;25.10;95.60;;;;;;4978083;28;20042;-71
2023/09/16 12:36:30;;;;;;;7.40;4.67;;;25.10;95.50;;;;;;4995977;28;20046;-71
2023/09/16 12:39:00;;;;;;;7.45;4.90;;;25.00;95.50;;;;;;5010970;28;20061;-71